Time;durP1;ratioP1;P1;durP2;ratioP2;P2;SDS_P1;SDS_P2;PMS_P1;PMS_P2;Temp;Humidity;BMP_temperature;BMP_pressure;BME280_temperature;BME280_humidity;BME280_pressure;Samples;Min_cycle;Max_cycle;Signal;HPM_P1;HPM_P2
2022/05/24 00:01:16;;;;;;;9.35;6.03;;;14.00;99.90;;;;;;5054490;28;20041;-65
2022/05/24 00:03:42;;;;;;;11.80;6.10;;;14.30;99.90;;;;;;5054379;28;20049;-66
2022/05/24 00:06:08;;;;;;;10.93;5.50;;;14.00;99.90;;;;;;5056136;28;20057;-65
2022/05/24 00:08:34;;;;;;;5.90;4.75;;;;;;;;;;5055924;28;20037;-65
2022/05/24 00:11:00;;;;;;;11.43;5.07;;;14.10;99.90;;;;;;5055916;28;20036;-65
2022/05/24 00:13:27;;;;;;;12.48;5.80;;;14.10;99.90;;;;;;5055856;28;20041;-65
2022/05/24 00:15:52;;;;;;;8.65;5.35;;;13.90;99.90;;;;;;5054756;28;20063;-65
2022/05/24 00:18:27;;;;;;;8.38;4.95;;;14.00;99.90;;;;;;5054568;28;20487;-65
2022/05/24 00:20:56;;;;;;;9.30;5.13;;;14.00;99.90;;;;;;5053905;28;20044;-65
2022/05/24 00:23:24;;;;;;;5.90;3.97;;;14.00;99.90;;;;;;5053933;28;20140;-65
2022/05/24 00:25:55;;;;;;;7.05;4.40;;;14.00;99.90;;;;;;5053949;28;20119;-65
2022/05/24 00:28:25;;;;;;;6.72;4.80;;;13.70;99.90;;;;;;5053686;28;20577;-65
2022/05/24 00:30:51;;;;;;;6.90;3.65;;;13.70;99.90;;;;;;5053938;28;20049;-65
2022/05/24 00:33:18;;;;;;;9.32;4.20;;;13.80;99.90;;;;;;5037028;28;20044;-66
2022/05/24 00:35:44;;;;;;;8.70;4.45;;;13.70;99.90;;;;;;5054089;28;20083;-65
2022/05/24 00:38:12;;;;;;;7.40;4.30;;;13.60;99.90;;;;;;5055978;28;20395;-65
2022/05/24 00:40:45;;;;;;;7.43;3.42;;;13.50;99.90;;;;;;5055065;28;20055;-65
2022/05/24 00:43:34;;;;;;;9.90;4.93;;;13.60;99.90;;;;;;5037292;28;20041;-64
2022/05/24 00:46:05;;;;;;;10.13;3.95;;;13.60;99.90;;;;;;5053601;28;20041;-65
2022/05/24 00:48:47;;;;;;;4.90;3.60;;;13.60;99.90;;;;;;5054211;28;20041;-65
2022/05/24 00:51:15;;;;;;;10.50;4.47;;;13.50;99.90;;;;;;5044814;28;20613;-65
2022/05/24 00:53:46;;;;;;;9.57;4.80;;;13.50;99.90;;;;;;5034610;28;20041;-64
2022/05/24 00:56:17;;;;;;;7.53;4.43;;;13.40;99.90;;;;;;5034979;28;20487;-63
2022/05/24 00:58:53;;;;;;;11.02;5.05;;;13.50;99.90;;;;;;5033132;28;20056;-63
2022/05/24 01:01:34;;;;;;;6.32;4.20;;;13.40;99.90;;;;;;5033615;28;20041;-63
2022/05/24 01:04:00;;;;;;;10.27;5.38;;;13.30;99.90;;;;;;5033433;28;20573;-64
2022/05/24 01:06:26;;;;;;;9.73;5.28;;;13.30;99.90;;;;;;5033138;28;20077;-64
2022/05/24 01:08:54;;;;;;;6.05;4.95;;;13.50;99.90;;;;;;5034338;28;20100;-63
2022/05/24 01:11:22;;;;;;;6.03;4.43;;;13.30;99.90;;;;;;5033290;28;20097;-64
2022/05/24 01:13:50;;;;;;;8.75;4.78;;;13.40;99.90;;;;;;5035016;28;20041;-64
2022/05/24 01:16:17;;;;;;;8.63;5.30;;;13.30;99.90;;;;;;5034528;28;20159;-64
2022/05/24 01:18:43;;;;;;;7.18;5.05;;;13.20;99.90;;;;;;5033109;28;20041;-63
2022/05/24 01:21:14;;;;;;;9.35;4.82;;;13.30;99.90;;;;;;5034230;28;20069;-63
2022/05/24 01:23:53;;;;;;;7.88;4.53;;;13.10;99.90;;;;;;5034471;28;20523;-63
2022/05/24 01:26:32;;;;;;;9.50;5.03;;;13.10;99.90;;;;;;5034470;28;20124;-63
2022/05/24 01:29:00;;;;;;;8.05;4.82;;;13.10;99.90;;;;;;5016643;28;20561;-64
2022/05/24 01:36:09;;;;;;;7.57;5.20;;;13.10;99.90;;;;;;5016532;28;20064;-63
2022/05/24 01:36:59;;;;;;;7.78;5.75;;;13.10;99.90;;;;;;5034129;28;20045;-64
2022/05/24 01:39:25;;;;;;;10.90;6.43;;;13.20;99.90;;;;;;5032440;28;20452;-64
2022/05/24 01:41:51;;;;;;;9.93;6.80;;;13.20;99.90;;;;;;5033109;28;20106;-63
2022/05/24 01:44:31;;;;;;;12.38;8.30;;;13.20;99.90;;;;;;5033097;28;20041;-65
2022/05/24 01:46:58;;;;;;;9.77;8.18;;;13.10;99.90;;;;;;5052183;28;20037;-64
2022/05/24 01:49:28;;;;;;;10.82;8.70;;;13.30;99.90;;;;;;5052151;28;20049;-64
2022/05/24 01:52:01;;;;;;;15.27;9.55;;;13.30;99.90;;;;;;5052019;28;20564;-64
2022/05/24 01:54:29;;;;;;;16.15;10.15;;;13.40;99.90;;;;;;5053639;28;20033;-64
2022/05/24 01:57:00;;;;;;;13.48;9.80;;;13.30;99.90;;;;;;5052442;28;20052;-64
2022/05/24 01:59:26;;;;;;;14.85;10.32;;;13.40;99.90;;;;;;5051825;28;20041;-64
2022/05/24 02:01:54;;;;;;;14.98;11.05;;;13.20;99.90;;;;;;5053625;28;20059;-64
2022/05/24 02:04:22;;;;;;;15.15;10.70;;;13.30;99.90;;;;;;5051973;28;20489;-64
2022/05/24 02:07:02;;;;;;;16.10;12.23;;;13.40;99.90;;;;;;5052444;28;20041;-64
2022/05/24 02:09:28;;;;;;;14.23;10.10;;;13.40;99.90;;;;;;5035552;28;20048;-64
2022/05/24 02:11:55;;;;;;;19.77;12.65;;;13.50;99.90;;;;;;5051950;28;20045;-65
2022/05/24 02:14:26;;;;;;;19.00;13.85;;;13.30;99.90;;;;;;5053550;28;20044;-65
2022/05/24 02:17:00;;;;;;;21.17;12.95;;;13.50;99.90;;;;;;5053049;28;20384;-64
2022/05/24 02:19:28;;;;;;;17.58;13.07;;;13.30;99.90;;;;;;5051879;28;20045;-64
2022/05/24 02:21:58;;;;;;;23.58;15.02;;;13.60;99.90;;;;;;5052828;28;20052;-64
2022/05/24 02:24:25;;;;;;;24.92;16.10;;;13.70;99.90;;;;;;5053329;28;20037;-65
2022/05/24 02:26:52;;;;;;;24.00;16.63;;;13.60;99.90;;;;;;5051744;28;20045;-66
2022/05/24 02:29:20;;;;;;;21.70;15.73;;;13.60;99.90;;;;;;5051787;28;20055;-65
2022/05/24 02:31:46;;;;;;;25.75;17.15;;;;;;;;;;5052846;28;20087;-65
2022/05/24 02:34:12;;;;;;;23.42;15.88;;;13.70;99.90;;;;;;5052692;28;20049;-65
2022/05/24 02:36:38;;;;;;;25.90;17.50;;;13.60;99.90;;;;;;5053205;28;20368;-64
2022/05/24 02:39:05;;;;;;;25.70;17.15;;;13.60;99.90;;;;;;5051519;28;20051;-65
2022/05/24 02:41:31;;;;;;;27.10;17.58;;;13.50;99.90;;;;;;5035174;28;20341;-65
2022/05/24 02:44:00;;;;;;;25.00;18.77;;;13.70;99.90;;;;;;5051944;28;20041;-64
2022/05/24 02:46:26;;;;;;;29.38;18.38;;;13.70;99.90;;;;;;5052901;28;20041;-64
2022/05/24 02:48:52;;;;;;;29.95;19.98;;;;;;;;;;5035399;28;20406;-64
2022/05/24 02:51:18;;;;;;;32.22;20.85;;;;;;;;;;5052717;28;20041;-64
2022/05/24 02:53:45;;;;;;;29.92;21.23;;;;;;;;;;5052776;28;20044;-64
2022/05/24 02:56:11;;;;;;;36.72;22.85;;;13.70;99.90;;;;;;5034540;28;20033;-64
2022/05/24 02:58:37;;;;;;;36.40;23.90;;;13.80;99.90;;;;;;5052102;28;20095;-64
2022/05/24 03:01:11;;;;;;;36.65;24.55;;;13.90;99.90;;;;;;5051596;28;20372;-64
2022/05/24 03:03:36;;;;;;;41.30;24.73;;;13.80;99.90;;;;;;5034920;28;20079;-64
2022/05/24 03:06:02;;;;;;;39.47;25.70;;;13.80;99.90;;;;;;5034310;28;20081;-65
2022/05/24 03:11:13;;;;;;;38.33;25.13;;;;;;;;;;5052992;28;20053;-64
2022/05/24 03:16:22;;;;;;;42.78;25.45;;;13.80;99.90;;;;;;5053317;28;20412;-64
2022/05/24 03:18:48;;;;;;;41.92;27.50;;;13.70;99.90;;;;;;5052987;28;20132;-64
2022/05/24 03:21:13;;;;;;;42.50;25.92;;;13.80;99.90;;;;;;5053084;28;20420;-65
2022/05/24 03:23:39;;;;;;;44.20;26.70;;;13.90;99.90;;;;;;5051550;28;20064;-64
2022/05/24 03:26:05;;;;;;;40.42;25.70;;;13.90;99.90;;;;;;5053264;28;20048;-64
2022/05/24 03:28:30;;;;;;;38.63;25.80;;;13.90;99.90;;;;;;5053402;28;20465;-64
2022/05/24 03:30:56;;;;;;;44.20;26.52;;;;;;;;;;5035289;28;20438;-64
2022/05/24 03:33:22;;;;;;;41.38;26.48;;;13.80;99.90;;;;;;5036790;28;20414;-64
2022/05/24 03:35:48;;;;;;;42.13;26.80;;;13.90;99.90;;;;;;5055898;28;20049;-64
2022/05/24 03:38:14;;;;;;;42.28;25.73;;;13.90;99.90;;;;;;5056319;28;20641;-64
2022/05/24 03:40:39;;;;;;;40.40;25.20;;;13.80;99.90;;;;;;5055061;28;20040;-64
2022/05/24 03:43:11;;;;;;;39.05;25.40;;;13.90;99.90;;;;;;5054648;28;20240;-64
2022/05/24 03:45:37;;;;;;;38.03;24.27;;;13.90;99.90;;;;;;5054575;28;20041;-64
2022/05/24 03:48:02;;;;;;;36.53;23.30;;;13.80;99.90;;;;;;5054659;28;20078;-65
2022/05/24 03:50:28;;;;;;;37.40;22.58;;;14.00;99.90;;;;;;5055058;28;20127;-64
2022/05/24 03:52:54;;;;;;;30.70;22.50;;;14.10;99.90;;;;;;5055990;28;20071;-64
2022/05/24 03:55:19;;;;;;;32.17;21.42;;;13.90;99.90;;;;;;5055513;28;20043;-64
2022/05/24 03:58:01;;;;;;;30.75;21.02;;;13.80;99.90;;;;;;5054362;28;20041;-64
2022/05/24 04:00:36;;;;;;;31.23;19.25;;;13.90;99.90;;;;;;5054638;28;20033;-64
2022/05/24 04:03:03;;;;;;;27.75;18.90;;;13.70;99.90;;;;;;5055370;28;20043;-64
2022/05/24 04:05:29;;;;;;;28.80;18.63;;;13.80;99.90;;;;;;5053791;28;20052;-64
2022/05/24 04:07:55;;;;;;;35.33;20.45;;;13.90;99.90;;;;;;5055391;28;20052;-64
2022/05/24 04:10:22;;;;;;;26.08;20.02;;;13.90;99.90;;;;;;5053542;28;20439;-64
2022/05/24 04:12:47;;;;;;;29.58;19.90;;;13.90;99.90;;;;;;5053534;28;20406;-64
2022/05/24 04:15:14;;;;;;;29.75;20.52;;;;;;;;;;5046172;28;20033;-66
2022/05/24 04:17:40;;;;;;;31.30;19.05;;;14.00;99.90;;;;;;5033268;28;20056;-65
2022/05/24 04:20:06;;;;;;;33.13;20.55;;;14.10;99.90;;;;;;5033501;28;20045;-64
2022/05/24 04:22:32;;;;;;;28.02;18.63;;;13.80;99.90;;;;;;5033198;28;20042;-65
2022/05/24 04:24:58;;;;;;;30.45;18.13;;;14.00;99.90;;;;;;5033117;28;20068;-64
2022/05/24 04:27:24;;;;;;;28.10;19.17;;;14.00;99.90;;;;;;5034527;28;20468;-64
2022/05/24 04:29:52;;;;;;;28.73;18.40;;;14.00;99.90;;;;;;5045603;28;20044;-64
2022/05/24 04:32:18;;;;;;;30.50;18.90;;;13.90;99.90;;;;;;5048093;28;20044;-65
2022/05/24 04:34:44;;;;;;;28.05;18.33;;;13.90;99.90;;;;;;5033929;28;20045;-65
2022/05/24 04:37:09;;;;;;;29.13;18.27;;;14.00;99.90;;;;;;5017099;28;20056;-65
2022/05/24 04:39:36;;;;;;;26.85;17.63;;;13.90;99.90;;;;;;5033708;28;20121;-64
2022/05/24 04:42:21;;;;;;;24.80;17.67;;;13.80;99.90;;;;;;5033689;28;20059;-64
2022/05/24 04:44:53;;;;;;;25.88;17.58;;;13.90;99.90;;;;;;5069068;28;20071;-64
2022/05/24 04:47:20;;;;;;;26.17;18.23;;;14.00;99.90;;;;;;5048900;28;20037;-65
2022/05/24 04:49:53;;;;;;;30.65;18.63;;;13.90;99.90;;;;;;5050666;28;20036;-65
2022/05/24 04:52:21;;;;;;;26.25;16.95;;;14.00;99.90;;;;;;5049818;28;20090;-64
2022/05/24 04:54:47;;;;;;;29.27;17.73;;;;;;;;;;5043884;28;20045;-64
2022/05/24 04:57:13;;;;;;;30.10;19.35;;;14.10;99.90;;;;;;5027825;28;20081;-64
2022/05/24 04:59:39;;;;;;;29.92;18.77;;;;;;;;;;5029848;28;20069;-64
2022/05/24 05:02:05;;;;;;;32.92;21.20;;;14.10;99.90;;;;;;5028160;28;20077;-64
2022/05/24 05:04:31;;;;;;;34.90;20.50;;;14.10;99.90;;;;;;5028481;28;20446;-64
2022/05/24 05:06:56;;;;;;;30.42;20.02;;;14.10;99.90;;;;;;5026051;28;20046;-65
2022/05/24 05:09:22;;;;;;;35.88;20.85;;;;;;;;;;5025155;28;20107;-65
2022/05/24 05:11:48;;;;;;;41.90;22.23;;;14.10;99.90;;;;;;5027240;28;20133;-65
2022/05/24 05:14:14;;;;;;;31.10;19.67;;;;;;;;;;5029483;28;20460;-65
2022/05/24 05:16:41;;;;;;;34.30;18.77;;;14.00;99.90;;;;;;5042825;28;20482;-63
2022/05/24 05:19:10;;;;;;;27.20;18.08;;;14.20;99.90;;;;;;5048083;28;20053;-64
2022/05/24 05:21:37;;;;;;;31.80;18.70;;;14.10;99.90;;;;;;5049368;28;20041;-63
2022/05/24 05:24:05;;;;;;;31.25;16.77;;;14.10;99.90;;;;;;5049337;28;20099;-65
2022/05/24 05:26:31;;;;;;;28.60;17.42;;;14.90;99.90;;;;;;5048904;28;20075;-65
2022/05/24 05:28:57;;;;;;;24.63;16.38;;;;;;;;;;5047702;28;20494;-63
2022/05/24 05:31:25;;;;;;;27.45;17.15;;;14.20;99.90;;;;;;5036880;28;20056;-64
2022/05/24 05:33:51;;;;;;;28.98;17.33;;;13.70;99.90;;;;;;5025310;28;20558;-64
2022/05/24 05:36:20;;;;;;;25.92;15.25;;;13.90;99.90;;;;;;5030938;28;20033;-65
2022/05/24 05:38:47;;;;;;;25.45;15.95;;;14.00;99.90;;;;;;5037546;28;20498;-64
2022/05/24 05:41:18;;;;;;;29.33;17.08;;;13.80;99.90;;;;;;5036298;28;20491;-63
2022/05/24 05:43:44;;;;;;;24.83;15.30;;;;;;;;;;5028247;28;20124;-65
2022/05/24 05:46:11;;;;;;;27.63;15.43;;;13.90;99.90;;;;;;5027577;28;20041;-65
2022/05/24 05:48:38;;;;;;;26.95;16.67;;;13.70;99.90;;;;;;5029043;28;20091;-65
2022/05/24 05:51:05;;;;;;;26.90;15.45;;;13.90;99.90;;;;;;5028115;28;20052;-64
2022/05/24 05:53:31;;;;;;;26.48;15.00;;;;;;;;;;5026368;28;20091;-65
2022/05/24 05:55:56;;;;;;;23.23;14.48;;;14.00;99.90;;;;;;5029389;28;20029;-65
2022/05/24 05:58:22;;;;;;;22.63;15.75;;;13.90;99.90;;;;;;5031573;28;20069;-64
2022/05/24 06:00:49;;;;;;;27.55;14.52;;;14.00;99.90;;;;;;5032602;28;20503;-64
2022/05/24 06:03:15;;;;;;;21.85;15.13;;;13.90;99.90;;;;;;5031418;28;20087;-64
2022/05/24 06:05:47;;;;;;;25.23;14.20;;;13.90;99.90;;;;;;5031535;28;20380;-65
2022/05/24 06:08:13;;;;;;;25.88;14.55;;;13.90;99.90;;;;;;5031412;28;20129;-65
2022/05/24 06:10:39;;;;;;;25.83;14.00;;;13.80;99.90;;;;;;5031066;28;20041;-65
2022/05/24 06:13:06;;;;;;;23.92;13.65;;;13.80;99.90;;;;;;5029829;28;20045;-65
2022/05/24 06:15:32;;;;;;;24.35;14.20;;;13.80;99.90;;;;;;5032416;28;20454;-65
2022/05/24 06:17:59;;;;;;;22.77;13.68;;;13.90;99.90;;;;;;5042169;28;20041;-65
2022/05/24 06:20:28;;;;;;;25.75;14.60;;;13.90;99.90;;;;;;5052207;28;20099;-64
2022/05/24 06:22:55;;;;;;;24.30;14.60;;;13.90;99.90;;;;;;5052162;28;20029;-65
2022/05/24 06:25:26;;;;;;;23.15;14.38;;;14.00;99.90;;;;;;5050983;28;20045;-65
2022/05/24 06:27:53;;;;;;;22.58;13.13;;;14.20;99.90;;;;;;5051085;28;20052;-65
2022/05/24 06:30:21;;;;;;;24.70;13.98;;;14.10;99.90;;;;;;5052396;28;20045;-65
2022/05/24 06:32:50;;;;;;;22.05;14.60;;;14.00;99.90;;;;;;5050605;28;20079;-65
2022/05/24 06:35:18;;;;;;;20.77;12.77;;;14.00;99.90;;;;;;5051829;28;20519;-64
2022/05/24 06:37:44;;;;;;;22.92;13.45;;;14.20;99.90;;;;;;5052280;28;20040;-65
2022/05/24 06:40:16;;;;;;;25.38;13.32;;;14.20;99.90;;;;;;5051025;28;20052;-65
2022/05/24 06:42:42;;;;;;;23.35;13.05;;;14.10;99.90;;;;;;5036141;28;20037;-65
2022/05/24 06:45:08;;;;;;;19.10;11.55;;;13.90;99.90;;;;;;5052321;28;20168;-65
2022/05/24 06:47:34;;;;;;;16.92;12.02;;;14.10;99.90;;;;;;5050621;28;20049;-65
2022/05/24 06:50:00;;;;;;;21.73;12.88;;;14.20;99.90;;;;;;5050843;28;20056;-65
2022/05/24 06:52:25;;;;;;;21.23;12.20;;;14.10;99.90;;;;;;5050114;28;20037;-65
2022/05/24 06:54:53;;;;;;;19.65;12.80;;;14.20;99.90;;;;;;5048333;28;20080;-65
2022/05/24 06:57:18;;;;;;;26.00;12.23;;;14.10;99.90;;;;;;5050992;28;20049;-65
2022/05/24 07:02:29;;;;;;;27.03;12.50;;;14.20;99.90;;;;;;5050733;28;20116;-65
2022/05/24 07:04:59;;;;;;;21.08;11.07;;;14.20;99.90;;;;;;5046732;28;20132;-65
2022/05/24 07:07:25;;;;;;;22.42;11.90;;;14.20;99.90;;;;;;5051121;28;20043;-65
2022/05/24 07:09:51;;;;;;;18.33;9.95;;;14.10;99.90;;;;;;5053813;28;20390;-64
2022/05/24 07:12:21;;;;;;;26.60;10.85;;;14.20;99.90;;;;;;5053554;28;20067;-65
2022/05/24 07:14:47;;;;;;;18.73;10.48;;;14.20;99.90;;;;;;5050413;28;20045;-65
2022/05/24 07:17:14;;;;;;;18.02;11.45;;;14.20;99.90;;;;;;5054302;28;20037;-65
2022/05/24 07:19:40;;;;;;;15.95;11.20;;;14.00;99.90;;;;;;5054492;28;20060;-65
2022/05/24 07:22:07;;;;;;;17.42;10.85;;;14.10;99.90;;;;;;5054465;28;20525;-64
2022/05/24 07:24:32;;;;;;;17.38;11.40;;;14.10;99.90;;;;;;5054234;28;20491;-65
2022/05/24 07:26:59;;;;;;;20.65;11.13;;;;;;;;;;5053072;28;20068;-64
2022/05/24 07:29:24;;;;;;;17.55;10.07;;;14.10;99.90;;;;;;5052926;28;20053;-65
2022/05/24 07:31:51;;;;;;;15.13;9.68;;;14.30;99.90;;;;;;5054270;28;20053;-65
2022/05/24 07:34:17;;;;;;;15.32;10.05;;;14.10;99.90;;;;;;5051730;28;20128;-65
2022/05/24 07:36:42;;;;;;;14.02;9.70;;;14.20;99.90;;;;;;5054071;28;20119;-65
2022/05/24 07:39:08;;;;;;;17.88;11.65;;;14.20;99.90;;;;;;5052819;28;20041;-65
2022/05/24 07:47:09;;;;;;;20.92;11.60;;;14.10;99.90;;;;;;5052283;28;20037;-65
2022/05/24 07:49:36;;;;;;;16.52;11.05;;;14.20;99.90;;;;;;5052655;28;20042;-65
2022/05/24 07:52:04;;;;;;;17.35;11.52;;;14.30;99.90;;;;;;5054620;28;20048;-65
2022/05/24 07:54:30;;;;;;;19.85;12.30;;;14.20;99.90;;;;;;5042157;28;20093;-65
2022/05/24 07:56:55;;;;;;;23.60;12.10;;;14.10;99.90;;;;;;5033680;28;20388;-65
2022/05/24 07:59:21;;;;;;;19.95;11.38;;;14.20;99.90;;;;;;5046698;28;20075;-65
2022/05/24 08:01:47;;;;;;;19.17;11.70;;;14.10;99.90;;;;;;5047884;28;20045;-65
2022/05/24 08:04:12;;;;;;;17.08;10.98;;;14.10;99.90;;;;;;5041070;28;20091;-65
2022/05/24 08:06:38;;;;;;;18.52;11.82;;;14.00;99.90;;;;;;5032941;28;20531;-64
2022/05/24 08:09:04;;;;;;;18.45;12.80;;;14.00;99.90;;;;;;5033364;28;20080;-65
2022/05/24 08:11:29;;;;;;;17.52;11.68;;;14.10;99.90;;;;;;5034490;28;20121;-65
2022/05/24 08:13:58;;;;;;;21.58;12.32;;;14.10;99.90;;;;;;5044239;28;20145;-65
2022/05/24 08:16:24;;;;;;;22.90;12.38;;;;;;;;;;5036203;28;20041;-67
2022/05/24 08:18:49;;;;;;;23.40;13.82;;;14.20;99.90;;;;;;5033692;28;20110;-66
2022/05/24 08:21:15;;;;;;;19.83;11.73;;;14.10;99.90;;;;;;5034884;28;20472;-64
2022/05/24 08:23:41;;;;;;;15.05;11.60;;;14.10;99.90;;;;;;5033436;28;20095;-65
2022/05/24 08:26:08;;;;;;;18.65;10.98;;;;;;;;;;5016059;28;20041;-65
2022/05/24 08:28:33;;;;;;;16.17;11.60;;;14.30;99.90;;;;;;5032594;28;20483;-65
2022/05/24 08:30:59;;;;;;;17.52;10.93;;;14.40;99.90;;;;;;5032916;28;20045;-65
2022/05/24 08:33:28;;;;;;;16.38;9.48;;;14.60;99.90;;;;;;5034174;28;20392;-66
2022/05/24 08:35:54;;;;;;;11.35;8.55;;;14.70;99.90;;;;;;5034324;28;20037;-66
2022/05/24 08:38:22;;;;;;;14.23;9.40;;;14.60;99.90;;;;;;5033893;28;20049;-64
2022/05/24 08:40:49;;;;;;;13.38;8.88;;;14.70;99.90;;;;;;5034024;28;20108;-66
2022/05/24 08:43:32;;;;;;;15.95;7.65;;;14.70;99.90;;;;;;5034342;28;20061;-66
2022/05/24 08:49:06;;;;;;;13.13;7.23;;;15.00;99.90;;;;;;5052559;28;20495;-66
2022/05/24 08:52:08;;;;;;;11.77;7.35;;;15.30;99.90;;;;;;5053867;28;20048;-65
2022/05/24 08:54:43;;;;;;;5.88;2.45;;;15.40;99.90;;;;;;5030591;28;20083;-66
2022/05/24 08:57:18;;;;;;;3.28;1.10;;;15.10;99.90;;;;;;5052362;28;20479;-65
2022/05/24 08:59:53;;;;;;;2.20;1.17;;;15.00;99.90;;;;;;5052399;28;20090;-65
2022/05/24 09:02:20;;;;;;;2.47;1.05;;;14.70;99.90;;;;;;5053613;28;20036;-66
2022/05/24 09:04:45;;;;;;;6.05;1.05;;;14.50;99.90;;;;;;5053114;28;20056;-66
2022/05/24 09:07:26;;;;;;;2.30;0.90;;;14.40;99.90;;;;;;5053353;28;20205;-65
2022/05/24 09:10:06;;;;;;;3.13;0.98;;;14.30;99.90;;;;;;5052384;28;20072;-65
2022/05/24 09:13:07;;;;;;;1.83;0.70;;;14.20;99.90;;;;;;5053760;28;20048;-65
2022/05/24 09:16:06;;;;;;;2.38;0.88;;;14.00;99.90;;;;;;5051986;28;20564;-65
2022/05/24 09:18:37;;;;;;;3.33;0.60;;;14.00;99.90;;;;;;5053215;28;20099;-65
2022/05/24 09:21:03;;;;;;;1.60;0.88;;;13.80;99.90;;;;;;5035654;28;20052;-65
2022/05/24 09:23:41;;;;;;;2.55;0.90;;;13.80;99.90;;;;;;5053389;28;20037;-65
2022/05/24 09:26:20;;;;;;;2.38;1.00;;;13.90;99.90;;;;;;5039788;28;20467;-66
2022/05/24 09:28:56;;;;;;;3.35;1.08;;;13.90;99.90;;;;;;5043952;28;20048;-66
2022/05/24 09:31:35;;;;;;;2.63;1.65;;;13.70;99.90;;;;;;5044964;28;20553;-65
2022/05/24 09:34:21;;;;;;;4.88;2.35;;;13.70;99.90;;;;;;5058198;28;20056;-66
2022/05/24 09:36:55;;;;;;;6.40;2.60;;;14.00;99.90;;;;;;5050166;28;20546;-66
2022/05/24 09:39:35;;;;;;;5.65;4.28;;;14.10;99.90;;;;;;5051645;28;20041;-64
2022/05/24 09:42:09;;;;;;;6.90;4.47;;;14.20;99.90;;;;;;5053236;28;20115;-65
2022/05/24 09:44:57;;;;;;;5.55;4.72;;;14.40;99.90;;;;;;5070169;28;20490;-66
2022/05/24 09:47:31;;;;;;;7.10;4.28;;;14.20;99.90;;;;;;5039313;28;20487;-64
2022/05/24 09:50:14;;;;;;;7.60;5.10;;;14.50;99.90;;;;;;5071397;28;20047;-64
2022/05/24 09:52:41;;;;;;;6.07;4.78;;;14.50;99.90;;;;;;5069957;28;20036;-65
2022/05/24 09:55:07;;;;;;;7.00;5.03;;;14.50;99.90;;;;;;5071384;28;20078;-65
2022/05/24 09:57:33;;;;;;;8.57;4.85;;;14.60;99.90;;;;;;5062225;28;20040;-64
2022/05/24 10:00:15;;;;;;;15.35;4.43;;;14.70;99.90;;;;;;5071617;28;20051;-65
2022/05/24 10:02:42;;;;;;;4.38;1.38;;;13.20;99.90;;;;;;5068637;28;20052;-65
2022/05/24 10:05:20;;;;;;;4.93;1.65;;;14.10;99.90;;;;;;5050967;28;20395;-65
2022/05/24 10:08:11;;;;;;;2.38;1.35;;;13.80;99.90;;;;;;5049057;28;20057;-65
2022/05/24 10:10:39;;;;;;;3.08;1.33;;;13.60;99.90;;;;;;5050166;28;20033;-64
2022/05/24 10:13:11;;;;;;;2.22;1.40;;;13.50;99.90;;;;;;5050172;28;20053;-65
2022/05/24 10:16:10;;;;;;;2.80;1.17;;;13.50;99.90;;;;;;5031111;28;20041;-65
2022/05/24 10:18:50;;;;;;;2.67;1.45;;;13.40;99.90;;;;;;5036903;28;20055;-65
2022/05/24 10:21:31;;;;;;;4.35;1.50;;;13.40;99.90;;;;;;5070992;28;20138;-65
2022/05/24 10:24:22;;;;;;;5.30;1.77;;;13.90;99.90;;;;;;5054021;28;20467;-65
2022/05/24 10:27:04;;;;;;;2.78;1.52;;;14.00;99.90;;;;;;5070933;28;20048;-65
2022/05/24 10:29:51;;;;;;;4.13;1.90;;;14.00;99.90;;;;;;5063393;28;20442;-65
2022/05/24 10:39:08;;;;;;;5.07;2.80;;;14.00;99.90;;;;;;5070630;28;20048;-66
2022/05/24 10:41:53;;;;;;;3.08;2.38;;;13.90;99.90;;;;;;4983939;28;20098;-65
2022/05/24 10:44:30;;;;;;;8.75;3.25;;;13.90;99.90;;;;;;5055102;28;20116;-66
2022/05/24 10:47:07;;;;;;;4.22;2.20;;;13.80;99.90;;;;;;5057492;28;20124;-65
2022/05/24 10:49:39;;;;;;;4.97;2.83;;;13.80;99.90;;;;;;5053406;28;20430;-65
2022/05/24 10:52:29;;;;;;;3.95;2.70;;;13.80;99.90;;;;;;5053529;28;20056;-66
2022/05/24 10:55:14;;;;;;;5.47;2.80;;;13.80;99.90;;;;;;5054205;28;20138;-65
2022/05/24 10:58:01;;;;;;;6.05;2.55;;;13.70;99.90;;;;;;5058511;28;20155;-65
2022/05/24 11:00:52;;;;;;;6.28;2.83;;;13.80;99.90;;;;;;5051258;28;20086;-66
2022/05/24 11:03:20;;;;;;;4.53;2.75;;;13.70;99.90;;;;;;5045193;28;20114;-66
2022/05/24 11:06:11;;;;;;;6.22;2.72;;;13.70;99.90;;;;;;5054627;28;20446;-65
2022/05/24 11:09:00;;;;;;;5.97;2.30;;;13.70;99.90;;;;;;5040589;28;20063;-65
2022/05/24 11:11:51;;;;;;;5.18;2.30;;;14.10;99.90;;;;;;5063421;28;20140;-65
2022/05/24 11:14:20;;;;;;;3.55;1.55;;;14.00;99.90;;;;;;5070503;28;20711;-66
2022/05/24 11:16:48;;;;;;;4.95;1.63;;;14.10;99.90;;;;;;5054242;28;20453;-66
2022/05/24 11:19:35;;;;;;;2.65;1.58;;;14.30;99.90;;;;;;5052730;28;20049;-66
2022/05/24 11:22:40;;;;;;;1.67;1.30;;;14.50;99.90;;;;;;5046457;28;20044;-65
2022/05/24 11:25:21;;;;;;;4.30;1.52;;;14.70;99.90;;;;;;5052790;28;20155;-66
2022/05/24 11:28:00;;;;;;;4.93;1.48;;;14.90;99.90;;;;;;5068371;28;20060;-66
2022/05/24 11:30:35;;;;;;;4.00;1.20;;;15.00;99.90;;;;;;5074085;28;20056;-66
2022/05/24 11:33:05;;;;;;;2.72;1.00;;;15.00;99.90;;;;;;5046026;28;20037;-66
2022/05/24 11:35:38;;;;;;;5.35;1.50;;;15.10;99.90;;;;;;5032240;28;20071;-66
2022/05/24 11:38:38;;;;;;;2.15;1.10;;;15.10;99.90;;;;;;5061180;28;20047;-66
2022/05/24 11:41:12;;;;;;;4.20;1.38;;;15.20;99.90;;;;;;5072698;28;20071;-66
2022/05/24 11:43:43;;;;;;;4.88;1.42;;;15.30;99.90;;;;;;5073323;28;20555;-66
2022/05/24 11:46:15;;;;;;;1.50;1.00;;;15.40;99.90;;;;;;5061031;28;20044;-66
2022/05/24 11:48:48;;;;;;;3.42;1.23;;;15.40;99.90;;;;;;5067573;28;20087;-66
2022/05/24 11:51:39;;;;;;;5.72;1.63;;;15.40;99.90;;;;;;5073720;28;20054;-66
2022/05/24 11:54:23;;;;;;;2.67;1.48;;;15.40;99.90;;;;;;5055475;28;20036;-66
2022/05/24 11:57:01;;;;;;;4.05;1.40;;;15.30;99.90;;;;;;5052501;28;20049;-66
2022/05/24 11:59:39;;;;;;;2.95;1.17;;;15.20;99.90;;;;;;5071232;28;20059;-66
2022/05/24 12:02:20;;;;;;;2.63;1.00;;;15.10;99.90;;;;;;5072232;28;20060;-66
2022/05/24 12:08:01;;;;;;;7.47;2.97;;;15.10;99.90;;;;;;5051835;28;20091;-66
2022/05/24 12:11:05;;;;;;;2.47;0.70;;;14.90;99.90;;;;;;5042148;28;20088;-66
2022/05/24 12:13:54;;;;;;;3.20;0.65;;;14.70;99.90;;;;;;5034260;28;20048;-66
2022/05/24 12:16:34;;;;;;;2.78;0.93;;;14.60;99.90;;;;;;5050936;28;20121;-66
2022/05/24 12:19:03;;;;;;;2.53;0.77;;;14.40;99.90;;;;;;5059740;28;20398;-66
2022/05/24 12:21:55;;;;;;;3.35;1.00;;;14.30;99.90;;;;;;5071325;28;20033;-66
2022/05/24 12:24:47;;;;;;;3.22;0.77;;;14.50;99.90;;;;;;5059996;28;20040;-66
2022/05/24 12:27:47;;;;;;;3.17;1.48;;;14.40;99.90;;;;;;5062556;28;20079;-66
2022/05/24 12:30:21;;;;;;;2.63;1.30;;;14.60;99.90;;;;;;5068273;28;20052;-66
2022/05/24 12:32:47;;;;;;;2.03;1.60;;;14.80;99.90;;;;;;5067857;28;20051;-66
2022/05/24 12:35:15;;;;;;;3.83;1.58;;;15.00;99.90;;;;;;5057483;28;20087;-66
2022/05/24 12:37:55;;;;;;;3.92;1.65;;;15.10;99.90;;;;;;5047948;28;20128;-66
2022/05/24 12:40:22;;;;;;;7.93;1.98;;;15.30;99.90;;;;;;5059131;28;20756;-66
2022/05/24 12:42:55;;;;;;;3.47;1.70;;;15.40;99.90;;;;;;5069102;28;20040;-66
2022/05/24 12:45:35;;;;;;;7.80;2.20;;;15.40;99.90;;;;;;5059412;28;20052;-66
2022/05/24 12:48:01;;;;;;;4.90;2.13;;;;;;;;;;5047929;28;20064;-66
2022/05/24 12:50:37;;;;;;;3.83;2.20;;;15.60;99.90;;;;;;5057579;28;20442;-66
2022/05/24 12:53:07;;;;;;;3.63;2.08;;;15.50;99.90;;;;;;5069062;28;20427;-66
2022/05/24 12:58:47;;;;;;;;;;;15.70;99.90;;;;;;5051008;28;20049;-66
2022/05/24 13:01:16;;;;;;;2.05;1.40;;;16.10;99.90;;;;;;5048290;28;19920;-66
2022/05/24 13:04:03;;;;;;;2.40;1.50;;;16.10;99.90;;;;;;5051139;28;20475;-66
2022/05/24 13:06:31;;;;;;;2.22;1.40;;;16.20;99.90;;;;;;5043307;28;20197;-66
2022/05/24 13:09:20;;;;;;;5.72;1.38;;;16.10;99.90;;;;;;5037967;28;20049;-66
2022/05/24 13:11:51;;;;;;;3.63;1.40;;;15.80;99.90;;;;;;5033911;28;20045;-66
2022/05/24 13:14:39;;;;;;;4.53;1.33;;;15.60;99.90;;;;;;5025812;28;20045;-66
2022/05/24 13:17:07;;;;;;;3.25;1.98;;;15.80;99.90;;;;;;5012372;28;20037;-65
2022/05/24 13:19:49;;;;;;;5.20;1.75;;;15.50;99.90;;;;;;5025320;28;20041;-66
2022/05/24 13:22:15;;;;;;;2.55;1.98;;;;;;;;;;5031128;28;20040;-66
2022/05/24 13:24:58;;;;;;;2.70;1.98;;;15.60;99.90;;;;;;5032659;28;20060;-65
2022/05/24 13:27:24;;;;;;;2.60;1.85;;;17.20;99.90;;;;;;5027112;28;20051;-65
2022/05/24 13:35:28;;;;;;;6.65;2.78;;;15.70;99.90;;;;;;5041127;28;20057;-65
2022/05/24 13:37:57;;;;;;;3.63;2.13;;;15.70;99.90;;;;;;5030265;28;20055;-65
2022/05/24 13:40:52;;;;;;;3.15;1.98;;;15.60;99.90;;;;;;5032941;28;20143;-65
2022/05/24 13:43:43;;;;;;;3.70;2.70;;;15.70;99.90;;;;;;5054307;28;20044;-64